Time;durP1;ratioP1;P1;durP2;ratioP2;P2;SDS_P1;SDS_P2;PMS_P1;PMS_P2;Temp;Humidity;BMP_temperature;BMP_pressure;BME280_temperature;BME280_humidity;BME280_pressure;Samples;Min_cycle;Max_cycle;Signal;HPM_P1;HPM_P2
2022/05/06 00:03:31;;;;;;;16.13;10.77;;;;;;;;;;8298078;28;20055;-83
2022/05/06 00:07:34;;;;;;;13.20;9.55;;;;;;;;;;8297142;28;20042;-84
2022/05/06 00:11:37;;;;;;;18.05;11.48;;;;;;;;;;8292912;28;20049;-83
2022/05/06 00:15:40;;;;;;;14.85;10.80;;;;;;;;;;8293807;28;20041;-83
2022/05/06 00:19:44;;;;;;;15.82;10.55;;;;;;;;;;8296719;28;20521;-83
2022/05/06 00:23:47;;;;;;;13.15;10.45;;;;;;;;;;8297842;28;20057;-83
2022/05/06 00:27:50;;;;;;;14.75;11.20;;;;;;;;;;8294963;28;20477;-83
2022/05/06 00:31:53;;;;;;;13.88;9.93;;;;;;;;;;8293088;28;20045;-83
2022/05/06 00:35:58;;;;;;;15.82;11.02;;;;;;;;;;8295947;28;20128;-83
2022/05/06 00:40:01;;;;;;;13.93;10.43;;;;;;;;;;8297184;28;20053;-84
2022/05/06 00:44:06;;;;;;;14.43;10.93;;;;;;;;;;8294786;28;20501;-83
2022/05/06 00:48:09;;;;;;;14.68;10.25;;;;;;;;;;8278413;28;20053;-83
2022/05/06 00:52:13;;;;;;;14.70;10.25;;;;;;;;;;8295056;28;20069;-83
2022/05/06 00:56:18;;;;;;;14.35;10.45;;;;;;;;;;8297168;28;20046;-83
2022/05/06 01:00:20;;;;;;;14.30;10.70;;;;;;;;;;8295015;28;20056;-82
2022/05/06 01:04:23;;;;;;;14.25;10.52;;;;;;;;;;8294741;28;20071;-83
2022/05/06 01:08:27;;;;;;;15.77;10.38;;;;;;;;;;8294828;28;20038;-84
2022/05/06 01:12:30;;;;;;;14.63;11.00;;;;;;;;;;8295180;28;20050;-82
2022/05/06 01:16:36;;;;;;;13.43;10.23;;;;;;;;;;8296016;28;20054;-83
2022/05/06 01:20:53;;;;;;;15.13;10.90;;;;;;;;;;8294163;28;20054;-84
2022/05/06 01:24:57;;;;;;;15.02;11.65;;;;;;;;;;8292815;28;20056;-82
2022/05/06 01:29:00;;;;;;;19.73;13.00;;;;;;;;;;8294514;28;20401;-83
2022/05/06 01:33:04;;;;;;;20.02;11.88;;;;;;;;;;8294017;28;20041;-82
2022/05/06 01:37:08;;;;;;;18.48;12.27;;;;;;;;;;8293474;28;20047;-82
2022/05/06 01:41:21;;;;;;;17.48;11.65;;;;;;;;;;8292746;28;20048;-83
2022/05/06 01:45:26;;;;;;;17.30;12.05;;;;;;;;;;8295599;28;20046;-82
2022/05/06 01:49:31;;;;;;;16.02;11.77;;;;;;;;;;8296486;28;20490;-82
2022/05/06 01:53:34;;;;;;;17.13;12.25;;;;;;;;;;8291992;28;20046;-84
2022/05/06 01:57:37;;;;;;;17.25;12.57;;;;;;;;;;8298901;28;20497;-83
2022/05/06 02:01:40;;;;;;;21.42;12.70;;;;;;;;;;8301203;28;20482;-85
2022/05/06 02:05:42;;;;;;;15.77;12.25;;;;;;;;;;8301902;28;20468;-84
2022/05/06 02:09:45;;;;;;;15.90;11.60;;;;;;;;;;8299476;28;20469;-83
2022/05/06 02:13:49;;;;;;;17.05;12.38;;;;;;;;;;8300149;28;20502;-83
2022/05/06 02:17:52;;;;;;;15.13;11.30;;;;;;;;;;8299775;28;20062;-83
2022/05/06 02:21:54;;;;;;;16.35;11.98;;;;;;;;;;8300452;28;20049;-83
2022/05/06 02:25:57;;;;;;;24.50;14.65;;;;;;;;;;8300617;28;20038;-84
2022/05/06 02:34:21;;;;;;;17.30;12.37;;;;;;;;;;8298836;28;20041;-83
2022/05/06 02:38:25;;;;;;;15.82;11.73;;;;;;;;;;8288800;28;20417;-82
2022/05/06 02:42:27;;;;;;;17.25;12.13;;;;;;;;;;8298458;28;20049;-84
2022/05/06 02:46:31;;;;;;;19.98;12.18;;;;;;;;;;8299401;28;20466;-85
2022/05/06 02:50:34;;;;;;;16.63;12.10;;;;;;;;;;8298767;28;20448;-83
2022/05/06 02:54:37;;;;;;;18.83;13.82;;;;;;;;;;8304446;28;20049;-83
2022/05/06 02:58:39;;;;;;;19.30;13.38;;;;;;;;;;8299107;28;20042;-83
2022/05/06 03:02:43;;;;;;;20.02;12.90;;;;;;;;;;8299040;28;20096;-82
2022/05/06 03:06:46;;;;;;;15.13;11.68;;;;;;;;;;8297314;28;20555;-82
2022/05/06 03:10:48;;;;;;;18.50;13.75;;;;;;;;;;8300211;28;20046;-84
2022/05/06 03:14:51;;;;;;;18.30;12.55;;;;;;;;;;8297685;28;20840;-83
2022/05/06 03:18:55;;;;;;;16.85;13.23;;;;;;;;;;8299115;28;20057;-82
2022/05/06 03:22:57;;;;;;;19.27;12.85;;;;;;;;;;8297726;28;20050;-82
2022/05/06 03:27:00;;;;;;;19.40;13.05;;;;;;;;;;8298381;28;20081;-84
2022/05/06 03:31:03;;;;;;;22.63;14.52;;;;;;;;;;8299452;28;20068;-82
2022/05/06 03:35:09;;;;;;;29.02;17.23;;;;;;;;;;8297559;28;20049;-82
2022/05/06 03:39:12;;;;;;;22.75;15.82;;;;;;;;;;8298842;28;20049;-84
2022/05/06 03:43:14;;;;;;;27.92;18.58;;;;;;;;;;8297258;28;20049;-84
2022/05/06 03:47:17;;;;;;;28.80;19.45;;;;;;;;;;8293813;28;20618;-83
2022/05/06 03:51:23;;;;;;;42.00;26.13;;;;;;;;;;8288129;28;20100;-83
2022/05/06 03:55:26;;;;;;;26.88;16.75;;;;;;;;;;8290233;28;20056;-83
2022/05/06 03:59:30;;;;;;;21.20;15.48;;;;;;;;;;8289020;28;20629;-85
2022/05/06 04:03:33;;;;;;;21.17;14.68;;;;;;;;;;8282886;28;20054;-84
2022/05/06 04:07:37;;;;;;;22.77;16.02;;;;;;;;;;8288644;28;20056;-84
2022/05/06 04:11:39;;;;;;;23.80;17.55;;;;;;;;;;8282455;28;20054;-83
2022/05/06 04:15:42;;;;;;;21.00;16.33;;;;;;;;;;8276731;28;20473;-83
2022/05/06 04:24:03;;;;;;;21.35;14.90;;;;;;;;;;8262199;28;20509;-85
2022/05/06 04:28:06;;;;;;;19.25;14.02;;;;;;;;;;8268224;28;20104;-83
2022/05/06 04:32:10;;;;;;;19.52;13.63;;;;;;;;;;8269609;28;20410;-84
2022/05/06 04:36:13;;;;;;;19.92;14.80;;;;;;;;;;8275032;28;20478;-85
2022/05/06 04:40:18;;;;;;;20.05;15.52;;;;;;;;;;8269367;28;20555;-87
2022/05/06 04:44:21;;;;;;;23.95;17.30;;;;;;;;;;8264423;28;20054;-85
2022/05/06 04:48:24;;;;;;;25.80;17.83;;;;;;;;;;8266755;28;20481;-84
2022/05/06 04:52:27;;;;;;;24.95;17.50;;;;;;;;;;8269134;28;21830;-85
2022/05/06 04:56:31;;;;;;;24.35;17.90;;;;;;;;;;8270425;28;20042;-84
2022/05/06 05:00:34;;;;;;;26.52;17.55;;;;;;;;;;8273401;28;20046;-82
2022/05/06 05:04:36;;;;;;;25.67;18.20;;;;;;;;;;8272032;28;20140;-84
2022/05/06 05:08:39;;;;;;;27.17;18.10;;;;;;;;;;8270918;28;20042;-83
2022/05/06 05:12:43;;;;;;;25.10;18.38;;;;;;;;;;8274063;28;20048;-85
2022/05/06 05:16:48;;;;;;;26.20;18.80;;;;;;;;;;8272219;28;20536;-83
2022/05/06 05:20:51;;;;;;;26.05;18.35;;;;;;;;;;8270188;28;20049;-84
2022/05/06 05:24:54;;;;;;;25.60;18.10;;;;;;;;;;8268204;28;20564;-84
2022/05/06 05:28:58;;;;;;;27.42;19.55;;;;;;;;;;8273739;28;20049;-86
2022/05/06 05:33:00;;;;;;;26.77;18.67;;;;;;;;;;8283432;28;20188;-86
2022/05/06 05:37:03;;;;;;;27.10;19.90;;;;;;;;;;8282432;28;20048;-86
2022/05/06 05:41:06;;;;;;;28.45;19.65;;;;;;;;;;8286162;28;20043;-85
2022/05/06 05:49:32;;;;;;;26.33;18.77;;;;;;;;;;8299780;28;20037;-85
2022/05/06 05:53:34;;;;;;;26.23;18.75;;;;;;;;;;8301481;28;20501;-85
2022/05/06 05:57:37;;;;;;;29.88;20.80;;;;;;;;;;8299160;28;20037;-82
2022/05/06 06:01:42;;;;;;;26.42;19.92;;;;;;;;;;8297931;28;20050;-85
2022/05/06 06:05:45;;;;;;;28.02;19.17;;;;;;;;;;8278715;28;20474;-85
2022/05/06 06:09:47;;;;;;;27.83;19.75;;;;;;;;;;8293589;28;20497;-85
2022/05/06 06:13:51;;;;;;;27.45;19.17;;;;;;;;;;8301181;28;20058;-86
2022/05/06 06:17:56;;;;;;;29.23;19.98;;;;;;;;;;8278839;28;20089;-85
2022/05/06 06:21:59;;;;;;;29.50;20.92;;;;;;;;;;8294416;28;20145;-84
2022/05/06 06:26:02;;;;;;;28.42;19.40;;;;;;;;;;8299114;28;20079;-84
2022/05/06 06:30:05;;;;;;;26.75;19.27;;;;;;;;;;8301837;28;20046;-84
2022/05/06 06:34:10;;;;;;;27.70;19.65;;;;;;;;;;8288797;28;20049;-83
2022/05/06 06:38:13;;;;;;;26.40;18.92;;;;;;;;;;8276415;28;20121;-84
2022/05/06 06:42:15;;;;;;;30.30;20.80;;;;;;;;;;8293626;28;20102;-83
2022/05/06 06:46:18;;;;;;;27.23;19.38;;;;;;;;;;8297676;28;20050;-83
2022/05/06 06:50:23;;;;;;;29.10;19.38;;;;;;;;;;8296110;28;20100;-83
2022/05/06 06:54:26;;;;;;;31.90;20.42;;;;;;;;;;8295443;28;20042;-83
2022/05/06 06:58:30;;;;;;;27.05;20.85;;;;;;;;;;8300123;28;20041;-85
2022/05/06 07:02:33;;;;;;;27.27;20.33;;;;;;;;;;8295384;28;20409;-84
2022/05/06 07:15:32;;;;;;;28.45;20.13;;;;;;;;;;8203621;28;20113;-85
2022/05/06 07:19:35;;;;;;;29.95;19.77;;;;;;;;;;8241396;28;20057;-85
2022/05/06 07:23:39;;;;;;;28.88;20.23;;;;;;;;;;8299933;28;20050;-82
2022/05/06 07:27:43;;;;;;;30.02;21.88;;;;;;;;;;8297989;28;20050;-81
2022/05/06 07:31:46;;;;;;;31.45;22.13;;;;;;;;;;8297629;28;21743;-82
2022/05/06 07:35:49;;;;;;;34.13;22.60;;;;;;;;;;8293189;28;20046;-82
2022/05/06 07:39:53;;;;;;;32.10;22.20;;;;;;;;;;8292116;28;20049;-82
2022/05/06 07:43:56;;;;;;;33.30;22.38;;;;;;;;;;8296913;28;20054;-82
2022/05/06 07:47:58;;;;;;;33.92;23.00;;;;;;;;;;8295646;28;20057;-82
2022/05/06 07:52:01;;;;;;;38.40;25.13;;;;;;;;;;8288093;28;20494;-84
2022/05/06 07:56:05;;;;;;;37.33;24.30;;;;;;;;;;8286507;28;20132;-83
2022/05/06 08:00:10;;;;;;;33.92;21.90;;;;;;;;;;8298520;28;20120;-82
2022/05/06 08:08:33;;;;;;;31.02;21.58;;;;;;;;;;8299077;28;20050;-81
2022/05/06 08:12:37;;;;;;;36.17;23.60;;;;;;;;;;8296758;28;20050;-81
2022/05/06 08:16:40;;;;;;;36.53;25.67;;;;;;;;;;8296788;28;20046;-83
2022/05/06 08:20:44;;;;;;;36.63;23.65;;;;;;;;;;8289273;28;20621;-81
2022/05/06 08:24:47;;;;;;;32.58;23.35;;;;;;;;;;8298002;28;20054;-82
2022/05/06 08:28:52;;;;;;;37.13;22.17;;;;;;;;;;8293433;28;20478;-85
2022/05/06 08:32:55;;;;;;;30.23;20.17;;;;;;;;;;8294744;28;20379;-81
2022/05/06 08:36:59;;;;;;;26.95;18.88;;;;;;;;;;8298395;28;20403;-82
2022/05/06 08:41:02;;;;;;;24.85;18.27;;;;;;;;;;8292728;28;20053;-84
2022/05/06 08:53:54;;;;;;;26.02;16.17;;;;;;;;;;8280651;28;19928;-83
2022/05/06 08:57:57;;;;;;;21.60;15.35;;;;;;;;;;8297231;28;20042;-82
2022/05/06 09:02:02;;;;;;;26.88;16.63;;;;;;;;;;8291682;28;20045;-83
2022/05/06 09:06:05;;;;;;;23.70;16.08;;;;;;;;;;8295601;28;20048;-82
2022/05/06 09:10:15;;;;;;;19.77;14.93;;;;;;;;;;8294567;28;20042;-83
2022/05/06 09:14:20;;;;;;;27.47;16.17;;;;;;;;;;8297400;28;20053;-82
2022/05/06 09:18:25;;;;;;;24.50;16.20;;;;;;;;;;8295953;28;20057;-83
2022/05/06 09:22:29;;;;;;;19.88;14.02;;;;;;;;;;8294698;28;20054;-83
2022/05/06 09:26:32;;;;;;;20.98;14.98;;;;;;;;;;8290319;28;20042;-82
2022/05/06 09:30:35;;;;;;;18.15;14.23;;;;;;;;;;8292277;28;20042;-82
2022/05/06 09:34:40;;;;;;;21.45;14.13;;;;;;;;;;8290809;28;20046;-82
2022/05/06 09:39:01;;;;;;;26.50;14.38;;;;;;;;;;8289600;28;20449;-83
2022/05/06 09:43:03;;;;;;;19.77;13.77;;;;;;;;;;8273394;28;20049;-83
2022/05/06 09:47:15;;;;;;;22.55;13.77;;;;;;;;;;8281033;28;20046;-83
2022/05/06 09:51:33;;;;;;;18.70;12.85;;;;;;;;;;8287787;28;20054;-82
2022/05/06 09:55:37;;;;;;;19.75;13.95;;;;;;;;;;8291257;28;20445;-85
2022/05/06 09:59:42;;;;;;;20.88;14.13;;;;;;;;;;8280075;28;20081;-84
2022/05/06 10:03:45;;;;;;;17.05;12.68;;;;;;;;;;8275251;28;20054;-83
2022/05/06 10:07:52;;;;;;;16.15;11.85;;;;;;;;;;8261589;28;20121;-84
2022/05/06 10:12:01;;;;;;;16.85;12.55;;;;;;;;;;8266729;28;20046;-84
2022/05/06 10:16:05;;;;;;;15.43;12.57;;;;;;;;;;8261940;28;20053;-84
2022/05/06 10:20:09;;;;;;;16.85;13.88;;;;;;;;;;8265199;28;20066;-84
2022/05/06 10:24:16;;;;;;;18.95;11.93;;;;;;;;;;8265844;28;20545;-84
2022/05/06 10:33:10;;;;;;;15.85;10.90;;;;;;;;;;8237434;28;20576;-85
2022/05/06 10:37:19;;;;;;;12.88;9.63;;;;;;;;;;8291132;28;20199;-83
2022/05/06 10:41:37;;;;;;;19.40;10.65;;;;;;;;;;8274004;28;20144;-84
2022/05/06 10:45:48;;;;;;;15.55;10.30;;;;;;;;;;8290308;28;20053;-82
2022/05/06 10:49:53;;;;;;;10.85;8.15;;;;;;;;;;8275112;28;20046;-82
2022/05/06 10:53:56;;;;;;;19.65;11.25;;;;;;;;;;8265387;28;20084;-83
2022/05/06 10:58:06;;;;;;;17.65;9.82;;;;;;;;;;8264601;28;20060;-83
2022/05/06 11:02:12;;;;;;;15.67;9.97;;;;;;;;;;8271799;28;20069;-83
2022/05/06 11:06:21;;;;;;;13.20;8.85;;;;;;;;;;8293548;28;20437;-84
2022/05/06 11:10:27;;;;;;;11.98;7.45;;;;;;;;;;8288001;28;20042;-84
2022/05/06 11:14:30;;;;;;;12.43;9.35;;;;;;;;;;8291462;28;20532;-84
2022/05/06 11:18:42;;;;;;;12.02;8.80;;;;;;;;;;8298543;28;20046;-83
2022/05/06 11:22:52;;;;;;;14.80;9.20;;;;;;;;;;8294590;28;20045;-85
2022/05/06 11:26:56;;;;;;;13.00;8.97;;;;;;;;;;8294860;28;20482;-83
2022/05/06 11:31:01;;;;;;;9.93;6.85;;;;;;;;;;8293503;28;20085;-85
2022/05/06 11:35:11;;;;;;;11.50;8.05;;;;;;;;;;8297519;28;20478;-84
2022/05/06 11:39:14;;;;;;;10.85;6.07;;;;;;;;;;8294570;28;20388;-84
2022/05/06 11:43:21;;;;;;;10.30;5.68;;;;;;;;;;8298476;28;20512;-83
2022/05/06 11:47:27;;;;;;;11.60;5.57;;;;;;;;;;8299759;28;20046;-84
2022/05/06 11:51:35;;;;;;;11.77;5.80;;;;;;;;;;8299144;28;20045;-83
2022/05/06 11:55:39;;;;;;;12.10;6.07;;;;;;;;;;8295163;28;20096;-84
2022/05/06 11:59:43;;;;;;;11.25;6.53;;;;;;;;;;8301441;28;20045;-85
2022/05/06 12:03:48;;;;;;;10.38;6.80;;;;;;;;;;8282656;28;20044;-84
2022/05/06 12:07:51;;;;;;;13.57;8.00;;;;;;;;;;8295915;28;20099;-84
2022/05/06 12:12:05;;;;;;;13.00;8.40;;;;;;;;;;8297922;28;20045;-86
2022/05/06 12:16:13;;;;;;;10.52;8.05;;;;;;;;;;8275750;28;20042;-82
2022/05/06 12:20:34;;;;;;;12.63;9.02;;;;;;;;;;8295430;28;20050;-82
2022/05/06 12:24:45;;;;;;;11.75;8.32;;;;;;;;;;8292227;28;20382;-83
2022/05/06 12:28:49;;;;;;;15.85;10.02;;;;;;;;;;8294833;28;20386;-82
2022/05/06 12:33:02;;;;;;;16.52;10.15;;;;;;;;;;8301893;28;20416;-81
2022/05/06 12:37:16;;;;;;;17.65;10.10;;;;;;;;;;8296150;28;20042;-81
2022/05/06 12:41:21;;;;;;;17.42;10.18;;;;;;;;;;8297354;28;20046;-84
2022/05/06 12:45:23;;;;;;;16.10;10.38;;;;;;;;;;8292765;28;20074;-84
2022/05/06 12:49:42;;;;;;;16.58;10.32;;;;;;;;;;8293029;28;20192;-84
2022/05/06 12:53:46;;;;;;;17.20;10.70;;;;;;;;;;8295603;28;20104;-84
2022/05/06 12:57:49;;;;;;;15.07;10.48;;;;;;;;;;8287434;28;20096;-84
2022/05/06 13:01:52;;;;;;;17.42;11.10;;;;;;;;;;8284596;28;20100;-83
2022/05/06 13:05:55;;;;;;;17.20;11.15;;;;;;;;;;8280395;28;20042;-82
2022/05/06 13:10:01;;;;;;;19.42;11.10;;;;;;;;;;8286040;28;20103;-82
2022/05/06 13:14:04;;;;;;;19.30;11.85;;;;;;;;;;8297392;28;20046;-82
2022/05/06 13:18:09;;;;;;;16.92;10.65;;;;;;;;;;8280908;28;20055;-81
2022/05/06 13:22:14;;;;;;;18.00;11.15;;;;;;;;;;8283282;28;20486;-83
2022/05/06 13:26:18;;;;;;;20.55;12.00;;;;;;;;;;8285637;28;20050;-84
2022/05/06 13:30:21;;;;;;;21.38;10.63;;;;;;;;;;8265236;28;20524;-86
2022/05/06 13:34:24;;;;;;;17.10;11.00;;;;;;;;;;8279701;28;20421;-83
2022/05/06 13:38:27;;;;;;;18.30;11.50;;;;;;;;;;8275479;28;20042;-83
2022/05/06 13:42:32;;;;;;;18.27;11.25;;;;;;;;;;8268362;28;20045;-82
2022/05/06 13:46:39;;;;;;;17.40;9.75;;;;;;;;;;8278666;28;20048;-82
2022/05/06 13:50:52;;;;;;;16.45;10.43;;;;;;;;;;8290319;28;20073;-81
2022/05/06 13:54:56;;;;;;;16.08;10.98;;;;;;;;;;8285956;28;20122;-82
2022/05/06 13:59:06;;;;;;;14.75;10.10;;;;;;;;;;8284817;28;20084;-81
2022/05/06 14:03:11;;;;;;;17.25;9.07;;;;;;;;;;8283874;28;20042;-81
2022/05/06 14:07:13;;;;;;;16.45;9.68;;;;;;;;;;8281246;28;20198;-82
2022/05/06 14:11:18;;;;;;;16.20;9.65;;;;;;;;;;8280230;28;20185;-83
2022/05/06 14:15:22;;;;;;;16.95;10.30;;;;;;;;;;8281059;28;20077;-83
2022/05/06 14:19:26;;;;;;;15.80;9.75;;;;;;;;;;8285487;28;20050;-85
2022/05/06 14:23:28;;;;;;;15.52;9.52;;;;;;;;;;8286044;28;20169;-84
2022/05/06 14:27:32;;;;;;;15.38;9.10;;;;;;;;;;8297228;28;20064;-82
2022/05/06 14:31:37;;;;;;;11.18;7.32;;;;;;;;;;8300183;28;20069;-83
2022/05/06 14:35:40;;;;;;;12.50;6.72;;;;;;;;;;8294340;28;20042;-83
2022/05/06 14:39:43;;;;;;;10.45;6.50;;;;;;;;;;8298990;28;20133;-87
2022/05/06 14:43:47;;;;;;;10.18;6.60;;;;;;;;;;8290563;28;20132;-84
2022/05/06 14:47:52;;;;;;;9.07;6.57;;;;;;;;;;8295790;28;20041;-84
2022/05/06 14:51:58;;;;;;;10.02;6.43;;;;;;;;;;8299862;28;20045;-83
2022/05/06 14:56:03;;;;;;;11.95;6.43;;;;;;;;;;8300970;28;20572;-83
2022/05/06 15:00:09;;;;;;;10.90;6.35;;;;;;;;;;8298503;28;20049;-83
2022/05/06 15:04:17;;;;;;;9.95;6.03;;;;;;;;;;8298373;28;20049;-84
2022/05/06 15:08:21;;;;;;;12.15;5.80;;;;;;;;;;8299300;28;20133;-83
2022/05/06 15:12:24;;;;;;;8.32;5.25;;;;;;;;;;8299163;28;20105;-83
2022/05/06 15:16:27;;;;;;;10.13;6.25;;;;;;;;;;8298054;28;20050;-84
2022/05/06 15:20:31;;;;;;;11.40;6.93;;;;;;;;;;8300196;28;20065;-86
2022/05/06 15:24:34;;;;;;;11.55;6.82;;;;;;;;;;8300042;28;20100;-84
2022/05/06 15:28:37;;;;;;;9.48;5.93;;;;;;;;;;8290012;28;20050;-84
2022/05/06 15:32:40;;;;;;;12.43;8.75;;;;;;;;;;8294692;28;20053;-84
2022/05/06 15:36:45;;;;;;;14.77;8.27;;;;;;;;;;8300396;28;20041;-85
2022/05/06 15:40:51;;;;;;;11.50;7.00;;;;;;;;;;8299317;28;20076;-85
2022/05/06 15:44:53;;;;;;;18.15;7.70;;;;;;;;;;8299563;28;20064;-84
2022/05/06 15:48:56;;;;;;;13.88;7.85;;;;;;;;;;8299149;28;20076;-86
2022/05/06 15:53:00;;;;;;;17.80;7.82;;;;;;;;;;8268933;28;20057;-85
2022/05/06 15:57:04;;;;;;;12.38;7.28;;;;;;;;;;8267879;28;20062;-86
2022/05/06 16:01:08;;;;;;;12.25;7.18;;;;;;;;;;8290187;28;20293;-85
2022/05/06 16:05:11;;;;;;;12.98;6.80;;;;;;;;;;8273863;28;20046;-84
2022/05/06 16:09:15;;;;;;;11.65;6.15;;;;;;;;;;8262985;28;20064;-84
2022/05/06 16:13:18;;;;;;;12.55;5.90;;;;;;;;;;8285520;28;20057;-84
2022/05/06 16:17:21;;;;;;;9.95;5.78;;;;;;;;;;8281384;28;20069;-85
2022/05/06 16:21:24;;;;;;;10.55;5.80;;;;;;;;;;8282535;28;20046;-85
2022/05/06 16:25:29;;;;;;;15.55;6.53;;;;;;;;;;8284052;28;20054;-85
2022/05/06 16:29:32;;;;;;;13.10;6.32;;;;;;;;;;8285560;28;20045;-85
2022/05/06 16:37:20;;;;;;;16.15;7.47;;;;;;;;;;8283439;28;20124;-85
2022/05/06 16:37:59;;;;;;;17.08;8.52;;;;;;;;;;8272508;28;20050;-85
2022/05/06 16:42:07;;;;;;;21.00;7.60;;;;;;;;;;8265321;28;20516;-85
2022/05/06 16:46:11;;;;;;;9.13;5.15;;;;;;;;;;8264439;28;20053;-85
2022/05/06 16:50:14;;;;;;;11.13;5.40;;;;;;;;;;8277106;28;20042;-84
2022/05/06 16:54:17;;;;;;;12.80;4.75;;;;;;;;;;8278807;28;20049;-84
2022/05/06 16:58:21;;;;;;;10.25;4.30;;;;;;;;;;8287416;28;20058;-84
2022/05/06 17:02:23;;;;;;;6.63;3.90;;;;;;;;;;8265259;28;20089;-85
2022/05/06 17:06:26;;;;;;;9.45;4.65;;;;;;;;;;8269315;28;20050;-85
2022/05/06 17:10:30;;;;;;;11.07;4.88;;;;;;;;;;8276472;28;20112;-85
2022/05/06 17:14:34;;;;;;;11.40;4.28;;;;;;;;;;8282023;28;20137;-85
2022/05/06 17:18:38;;;;;;;10.82;4.85;;;;;;;;;;8283071;28;20387;-85
2022/05/06 17:22:43;;;;;;;13.80;5.10;;;;;;;;;;8260450;28;20053;-85
2022/05/06 17:26:46;;;;;;;15.82;5.18;;;;;;;;;;8276212;28;20057;-85
2022/05/06 17:30:51;;;;;;;11.75;5.88;;;;;;;;;;8282502;28;20479;-84
2022/05/06 17:34:54;;;;;;;10.82;5.85;;;;;;;;;;8293494;28;20093;-85
2022/05/06 17:38:58;;;;;;;12.52;5.15;;;;;;;;;;8285155;28;20054;-84
2022/05/06 17:43:01;;;;;;;9.70;4.95;;;;;;;;;;8276214;28;20050;-85
2022/05/06 17:47:07;;;;;;;8.43;4.78;;;;;;;;;;8277089;28;20061;-85
2022/05/06 17:51:10;;;;;;;8.82;5.18;;;;;;;;;;8278303;28;20482;-85
2022/05/06 17:55:14;;;;;;;12.25;5.55;;;;;;;;;;8298519;28;20052;-85
2022/05/06 17:59:17;;;;;;;11.35;5.40;;;;;;;;;;8270613;28;20505;-84
2022/05/06 18:03:22;;;;;;;18.65;7.60;;;;;;;;;;8265344;28;20057;-86
2022/05/06 18:07:25;;;;;;;17.17;7.85;;;;;;;;;;8287613;28;20054;-87
2022/05/06 18:11:30;;;;;;;21.13;9.40;;;;;;;;;;8300389;28;20092;-86
2022/05/06 18:15:37;;;;;;;17.52;8.00;;;;;;;;;;8302770;28;20082;-86
2022/05/06 18:19:46;;;;;;;19.50;9.90;;;;;;;;;;8301349;28;20053;-86
2022/05/06 18:23:54;;;;;;;19.00;8.75;;;;;;;;;;8294630;28;20062;-86
2022/05/06 18:28:01;;;;;;;16.77;9.00;;;;;;;;;;8270408;28;20049;-85
2022/05/06 18:37:09;;;;;;;15.43;6.70;;;;;;;;;;8282086;28;20453;-87
2022/05/06 18:41:27;;;;;;;14.02;6.35;;;;;;;;;;8267277;28;20122;-86
2022/05/06 18:45:33;;;;;;;17.75;8.18;;;;;;;;;;8287396;28;20045;-87
2022/05/06 18:49:40;;;;;;;57.90;24.48;;;;;;;;;;8287144;28;20076;-86
2022/05/06 18:53:48;;;;;;;46.58;18.20;;;;;;;;;;8286512;28;20042;-85
2022/05/06 18:58:01;;;;;;;28.30;11.98;;;;;;;;;;8272589;28;20053;-85
2022/05/06 19:02:08;;;;;;;26.05;10.35;;;;;;;;;;8285921;28;20084;-85
2022/05/06 19:06:13;;;;;;;19.85;8.70;;;;;;;;;;8282138;28;20046;-85
2022/05/06 19:10:19;;;;;;;18.95;8.23;;;;;;;;;;8278841;28;20057;-84
2022/05/06 19:14:22;;;;;;;15.07;7.72;;;;;;;;;;8286261;28;20064;-85
2022/05/06 19:18:25;;;;;;;18.33;8.02;;;;;;;;;;8281951;28;20057;-84
2022/05/06 19:26:55;;;;;;;18.95;8.73;;;;;;;;;;8283660;28;20042;-84
2022/05/06 19:30:59;;;;;;;16.88;7.70;;;;;;;;;;8284101;28;20045;-85
2022/05/06 19:35:06;;;;;;;19.50;8.48;;;;;;;;;;8282025;28;20038;-84
2022/05/06 19:39:11;;;;;;;17.25;8.18;;;;;;;;;;8284929;28;20375;-84
2022/05/06 19:43:18;;;;;;;15.30;8.32;;;;;;;;;;8283448;28;20121;-84
2022/05/06 19:47:33;;;;;;;22.90;8.43;;;;;;;;;;8280791;28;20465;-84
2022/05/06 19:56:24;;;;;;;21.85;8.38;;;;;;;;;;8286389;28;20050;-83
2022/05/06 20:00:55;;;;;;;18.45;7.97;;;;;;;;;;8283434;28;20050;-84
2022/05/06 20:05:05;;;;;;;14.32;8.77;;;;;;;;;;8274347;28;20125;-84
2022/05/06 20:09:20;;;;;;;14.68;8.93;;;;;;;;;;8280641;28;20056;-83
2022/05/06 20:13:25;;;;;;;17.27;8.98;;;;;;;;;;8287984;28;20060;-83
2022/05/06 20:17:45;;;;;;;13.40;8.70;;;;;;;;;;8280225;28;20537;-83
2022/05/06 20:21:57;;;;;;;15.68;8.10;;;;;;;;;;8280039;28;20042;-83
2022/05/06 20:26:01;;;;;;;14.63;7.70;;;;;;;;;;8281544;28;20046;-83
2022/05/06 20:30:08;;;;;;;12.65;7.55;;;;;;;;;;8282305;28;20505;-83
2022/05/06 20:34:13;;;;;;;15.32;7.68;;;;;;;;;;8280852;28;20518;-83
2022/05/06 20:38:19;;;;;;;12.35;7.15;;;;;;;;;;8279747;28;20050;-83
2022/05/06 20:42:23;;;;;;;14.40;7.80;;;;;;;;;;8277501;28;20046;-83
2022/05/06 20:46:27;;;;;;;16.20;8.18;;;;;;;;;;8282246;28;20045;-83
2022/05/06 20:50:31;;;;;;;13.25;7.80;;;;;;;;;;8279890;28;20066;-85
2022/05/06 20:54:35;;;;;;;12.48;7.50;;;;;;;;;;8284800;28;20046;-84
2022/05/06 21:02:57;;;;;;;12.98;6.82;;;;;;;;;;8279467;28;20474;-84
2022/05/06 21:07:01;;;;;;;11.82;6.85;;;;;;;;;;8265900;28;20137;-84
2022/05/06 21:15:24;;;;;;;11.75;6.82;;;;;;;;;;8298007;28;20046;-83
2022/05/06 21:19:27;;;;;;;16.02;6.53;;;;;;;;;;8297707;28;20137;-83
2022/05/06 21:23:33;;;;;;;13.10;7.18;;;;;;;;;;8297432;28;20038;-83
2022/05/06 21:27:36;;;;;;;11.70;6.85;;;;;;;;;;8297568;28;20050;-83
2022/05/06 21:31:39;;;;;;;11.95;6.65;;;;;;;;;;8293894;28;20482;-83
2022/05/06 21:35:42;;;;;;;16.15;6.80;;;;;;;;;;8293049;28;20057;-83
2022/05/06 21:39:46;;;;;;;15.20;6.82;;;;;;;;;;8295328;28;20046;-84
2022/05/06 21:43:49;;;;;;;13.93;9.02;;;;;;;;;;8305936;28;20428;-83
2022/05/06 21:47:52;;;;;;;14.98;8.18;;;;;;;;;;8317287;28;20520;-83
2022/05/06 21:51:54;;;;;;;18.35;9.48;;;;;;;;;;8312651;28;20057;-83
2022/05/06 21:55:59;;;;;;;11.93;7.07;;;;;;;;;;8297370;28;20049;-82
2022/05/06 22:00:02;;;;;;;12.68;7.18;;;;;;;;;;8293689;28;20560;-82
2022/05/06 22:04:05;;;;;;;11.38;7.05;;;;;;;;;;8297153;28;20486;-84
2022/05/06 22:08:08;;;;;;;11.73;7.75;;;;;;;;;;8295874;28;20045;-84
2022/05/06 22:12:12;;;;;;;16.90;8.15;;;;;;;;;;8299156;28;20042;-83
2022/05/06 22:16:15;;;;;;;13.95;7.93;;;;;;;;;;8301673;28;20515;-84
2022/05/06 22:20:17;;;;;;;20.23;11.13;;;;;;;;;;8297710;28;20054;-83
2022/05/06 22:24:20;;;;;;;13.35;7.57;;;;;;;;;;8292895;28;20502;-83
2022/05/06 22:28:24;;;;;;;19.48;12.63;;;;;;;;;;8290566;28;20054;-86
2022/05/06 22:32:27;;;;;;;17.25;10.77;;;;;;;;;;8270357;28;20109;-82
2022/05/06 22:36:29;;;;;;;10.95;7.57;;;;;;;;;;8300046;28;20482;-82
2022/05/06 22:40:33;;;;;;;19.27;9.48;;;;;;;;;;8310736;28;20049;-87
2022/05/06 22:48:57;;;;;;;19.95;12.15;;;;;;;;;;8301662;28;20046;-83
2022/05/06 22:53:00;;;;;;;24.52;11.10;;;;;;;;;;8301717;28;20053;-84
2022/05/06 22:57:02;;;;;;;30.33;12.38;;;;;;;;;;8299342;28;20050;-83
2022/05/06 23:01:06;;;;;;;15.15;8.13;;;;;;;;;;8299632;28;20048;-82
2022/05/06 23:05:10;;;;;;;13.32;6.95;;;;;;;;;;8308704;28;20068;-82
2022/05/06 23:09:12;;;;;;;11.60;7.05;;;;;;;;;;8298906;28;20053;-83
2022/05/06 23:13:15;;;;;;;14.70;7.38;;;;;;;;;;8299956;28;20057;-82
2022/05/06 23:17:19;;;;;;;13.68;7.95;;;;;;;;;;8296685;28;20108;-82
2022/05/06 23:21:21;;;;;;;14.35;8.25;;;;;;;;;;8298585;28;20046;-82
2022/05/06 23:25:24;;;;;;;15.05;7.57;;;;;;;;;;8298541;28;20474;-81
2022/05/06 23:29:27;;;;;;;14.25;7.32;;;;;;;;;;8299466;28;20053;-82
2022/05/06 23:33:31;;;;;;;15.55;8.05;;;;;;;;;;8299165;28;20056;-82
2022/05/06 23:37:33;;;;;;;13.10;7.25;;;;;;;;;;8295955;28;20050;-82
2022/05/06 23:41:36;;;;;;;14.40;7.57;;;;;;;;;;8297268;28;20100;-82
2022/05/06 23:45:38;;;;;;;13.35;7.22;;;;;;;;;;8316891;28;20049;-83
2022/05/06 23:49:42;;;;;;;11.25;6.80;;;;;;;;;;8298386;28;20108;-83
2022/05/06 23:53:45;;;;;;;15.10;6.53;;;;;;;;;;8297098;28;20046;-82
2022/05/06 23:57:47;;;;;;;17.08;9.05;;;;;;;;;;8292884;28;20046;-82
